Flight Track Log - Related Links

Times and Time Zones

All times are in EST time to prevent confusion due to time zone crossing. See the DAL6225 flight status page for this flight to view local times or setup timezone preferences in your user account.


Time Position Orientation Groundspeed Altitude Reporting Facility
EST Latitude Longitude Course Direction KTS MPH feet Rate Location/Type
Tue 05:50:52 AM 43.6469 -70.3717 251° West 158 182 2,300  Level Boston Center
Tue 05:51:51 AM 43.6556 -70.4569 278° West 223 257 4,400 2,231 Climbing Boston Center
Tue 05:52:53 AM 43.6731 -70.5422 286° West 231 266 6,800 2,678 Climbing Boston Center
Tue 05:53:52 AM 43.6911 -70.6328 285° West 242 278 9,800 2,182 Climbing Boston Center
Tue 05:54:54 AM 43.7067 -70.7275 283° West 254 292 11,200 1,900 Climbing Boston Center
Tue 05:55:52 AM 43.6811 -70.8286 251° West 276 318 13,600 1,900 Climbing Boston Center
Tue 05:56:00 AM 43.2499 -70.8287 251° West  Level Estimated
Tue 05:56:54 AM 43.6497 -70.9328 247° West 290 334 15,000  Level Boston Center
Tue 05:57:55 AM 43.6175 -71.0417 248° West 305 351 16,600 1,623 Climbing Boston Center
Tue 05:58:56 AM 43.5817 -71.1611 248° West 313 360 18,300 1,426 Climbing Boston Center
Tue 05:59:57 AM 43.5547 -71.2567 249° West 314 361 19,500 1,271 Climbing Boston Center
Tue 06:00:54 AM 43.5200 -71.3667 247° West 315 362 20,800 1,210 Climbing Boston Center
Tue 06:01:56 AM 43.4850 -71.4814 247° West 326 375 21,900 1,016 Climbing Boston Center
Tue 06:02:58 AM 43.4497 -71.5967 247° West 328 377 22,900 984 Climbing Boston Center
Tue 06:03:58 AM 43.4147 -71.7147 248° West 334 384 23,900 1,041 Climbing Boston Center
Tue 06:04:59 AM 43.3778 -71.8317 247° West 335 386 25,000 984 Climbing Boston Center
Tue 06:06:00 AM 43.3425 -71.9497 248° West 335 386 25,900 504 Climbing Boston Center
Tue 06:06:58 AM 43.3044 -72.0683 246° West 338 389 26,000 51 Climbing Boston Center
Tue 06:07:58 AM 43.2589 -72.2150 247° West 349 402 26,000  Level Boston Center
Tue 06:09:01 AM 43.2231 -72.3308 247° West 335 386 26,000  Level Boston Center
Tue 06:10:00 AM 43.1878 -72.4453 247° West 330 380 26,000  Level Boston Center
Tue 06:11:01 AM 43.1506 -72.5628 247° West 336 387 26,000  Level Boston Center
Tue 06:12:02 AM 43.1164 -72.6692 246° West 336 387 26,000 -49 Level Boston Center
Tue 06:13:03 AM 43.0786 -72.7886 247° West 340 391 25,900 -295 Descending Boston Center
Tue 06:14:04 AM 43.0414 -72.9047 246° West 336 387 25,400 -508 Descending Boston Center
Tue 06:15:01 AM 43.0008 -73.0289 246° West 336 387 24,900 -545 Descending Boston Center
Tue 06:16:05 AM 42.9633 -73.1467 247° West 339 390 24,300 -780 Descending Boston Center
Tue 06:17:04 AM 42.9258 -73.2631 246° West 339 390 23,300 -1,017 Descending Boston Center
Tue 06:18:03 AM 42.8883 -73.3769 246° West 334 384 22,300 -639 Descending Boston Center
Tue 06:19:06 AM 42.8517 -73.4892 246° West 330 380 22,000 -484 Descending Boston Center
Tue 06:20:07 AM 42.8153 -73.6025 246° West 330 380 21,300 -850 Descending Boston Center
Tue 06:21:06 AM 42.7786 -73.7106 245° Southwest 320 368 20,300 -650 Descending Boston Center
Tue 06:22:07 AM 42.7175 -73.7903 224° Southwest 326 375 20,000 -146 Descending Boston Center
Tue 06:23:09 AM 42.5931 -73.7700 173° South 381 438 20,000 -100 Level Boston Center
Tue 06:24:07 AM 42.4883 -73.7500 172° South 383 441 19,800 -793 Descending Boston Center
Tue 06:25:10 AM 42.3822 -73.7269 171° South 384 442 18,400 -878 Descending Boston Center
Tue 06:26:10 AM 42.2822 -73.7308 182° South 358 412 18,000 -198 Descending Boston Center
Tue 06:27:11 AM 42.1844 -73.7381 183° South 353 406 18,000  Level Boston Center
Tue 06:28:12 AM 42.0803 -73.7464 183° South 347 399 18,000 -595 Level Boston Center
Tue 06:29:12 AM 41.9844 -73.7528 183° South 346 398 16,800 -1,339 Descending Boston Center
Tue 06:30:13 AM 41.8925 -73.7614 184° South 334 384 15,300 -1,438 Descending Boston Center
Tue 06:31:13 AM 41.7964 -73.7683 183° South 345 397 13,900 -1,311 Descending Boston Center
Tue 06:32:12 AM 41.6981 -73.7758 183° South 351 404 12,700 -1,180 Descending Boston Center
Tue 06:33:15 AM 41.6000 -73.7819 183° South 352 405 11,500 -1,065 Descending Boston Center
Tue 06:34:16 AM 41.5069 -73.7894 183° South 332 382 10,500 -1,056 Descending Boston Center
Tue 06:35:03 AM 41.4333 -73.7833 176° South 269 310 9,600 -891 Descending New York TRACON
Tue 06:35:57 AM 41.3833 -73.8000 194° South 265 305 9,000 -300 Descending New York TRACON
Tue 06:37:03 AM 41.3000 -73.7500 156° South 296 341 9,000 -238 Level New York TRACON
Tue 06:38:03 AM 41.2333 -73.7000 151° Southeast 297 342 8,500 -887 Descending New York TRACON
Tue 06:38:58 AM 41.1667 -73.6500 151° Southeast 292 336 7,300 -1,357 Descending New York TRACON
Tue 06:39:58 AM 41.1000 -73.6000 151° Southeast 272 313 5,900 -1,316 Descending New York TRACON
Tue 06:40:52 AM 41.0333 -73.5833 169° South 263 303 4,800 -1,000 Descending New York TRACON
Tue 06:41:52 AM 40.9667 -73.5667 169° South 267 307 4,000 -555 Descending New York TRACON
Tue 06:42:51 AM 40.8833 -73.5667 180° South 260 299 3,700 -667 Descending New York TRACON
Tue 06:43:40 AM 40.8333 -73.5833 194° South 268 308 2,800 -936 Descending New York TRACON
Tue 06:44:40 AM 40.7667 -73.6000 191° South 273 314 2,000 -400 Descending New York TRACON
Tue 06:45:40 AM 40.7000 -73.6500 210° Southwest 213 245 2,000 -158 Level New York TRACON
Tue 06:46:34 AM 40.7000 -73.7000 270° West 161 185 1,700 -158 Descending New York TRACON
Tue 06:47:34 AM 40.7167 -73.7333 303° West 132 152 1,700 -150 Level New York TRACON
Tue 06:48:34 AM 40.7333 -73.7833 294° West 130 150 1,400 -550 Descending New York TRACON
Tue 06:49:34 AM 40.7500 -73.8167 303° West 119 137 600 -632 Descending New York TRACON
Tue 06:50:28 AM 40.7667 -73.8500 303° West 120 138 200 -444 Descending New York TRACON

Login

Don't have an account? Register now (free) for customized features, flight alerts, and more!